sensor_id;sensor_type;location;lat;lon;timestamp;P1;durP1;ratioP1;P2;durP2;ratioP2
29280;SDS011;25048;49.590;11.026;2022-07-06T00:02:20;5.37;;;1.60;;
29280;SDS011;25048;49.590;11.026;2022-07-06T00:04:47;3.33;;;1.80;;
29280;SDS011;25048;49.590;11.026;2022-07-06T00:07:15;2.08;;;1.85;;
29280;SDS011;25048;49.590;11.026;2022-07-06T00:09:42;2.80;;;1.62;;
29280;SDS011;25048;49.590;11.026;2022-07-06T00:12:10;4.25;;;1.87;;
29280;SDS011;25048;49.590;11.026;2022-07-06T00:14:37;2.83;;;1.70;;
29280;SDS011;25048;49.590;11.026;2022-07-06T00:17:05;5.12;;;1.77;;
29280;SDS011;25048;49.590;11.026;2022-07-06T00:19:32;2.50;;;1.70;;
29280;SDS011;25048;49.590;11.026;2022-07-06T00:22:00;3.42;;;1.80;;
29280;SDS011;25048;49.590;11.026;2022-07-06T00:24:27;1.80;;;1.70;;
29280;SDS011;25048;49.590;11.026;2022-07-06T00:26:55;2.17;;;1.80;;
29280;SDS011;25048;49.590;11.026;2022-07-06T00:29:22;2.65;;;1.90;;
29280;SDS011;25048;49.590;11.026;2022-07-06T00:31:50;3.60;;;1.80;;
29280;SDS011;25048;49.590;11.026;2022-07-06T00:34:17;3.67;;;1.92;;
29280;SDS011;25048;49.590;11.026;2022-07-06T00:36:45;3.98;;;1.98;;
29280;SDS011;25048;49.590;11.026;2022-07-06T00:39:12;2.22;;;1.80;;
29280;SDS011;25048;49.590;11.026;2022-07-06T00:41:40;3.15;;;1.90;;
29280;SDS011;25048;49.590;11.026;2022-07-06T00:44:08;3.08;;;1.92;;
29280;SDS011;25048;49.590;11.026;2022-07-06T00:46:36;3.42;;;1.95;;
29280;SDS011;25048;49.590;11.026;2022-07-06T00:49:03;2.45;;;1.80;;
29280;SDS011;25048;49.590;11.026;2022-07-06T00:51:32;2.50;;;1.80;;
29280;SDS011;25048;49.590;11.026;2022-07-06T00:54:02;5.22;;;1.95;;
29280;SDS011;25048;49.590;11.026;2022-07-06T00:56:31;4.28;;;2.00;;
29280;SDS011;25048;49.590;11.026;2022-07-06T00:59:02;5.03;;;2.05;;
29280;SDS011;25048;49.590;11.026;2022-07-06T01:01:30;3.60;;;1.72;;
29280;SDS011;25048;49.590;11.026;2022-07-06T01:03:57;2.58;;;1.80;;
29280;SDS011;25048;49.590;11.026;2022-07-06T01:06:25;4.25;;;2.12;;
29280;SDS011;25048;49.590;11.026;2022-07-06T01:08:52;3.62;;;1.87;;
29280;SDS011;25048;49.590;11.026;2022-07-06T01:11:20;5.17;;;1.90;;
29280;SDS011;25048;49.590;11.026;2022-07-06T01:13:48;2.77;;;2.20;;
29280;SDS011;25048;49.590;11.026;2022-07-06T01:16:17;4.15;;;2.10;;
29280;SDS011;25048;49.590;11.026;2022-07-06T01:18:45;2.37;;;1.87;;
29280;SDS011;25048;49.590;11.026;2022-07-06T01:21:13;5.37;;;2.30;;
29280;SDS011;25048;49.590;11.026;2022-07-06T01:23:42;2.67;;;1.80;;
29280;SDS011;25048;49.590;11.026;2022-07-06T01:26:19;2.77;;;1.75;;
29280;SDS011;25048;49.590;11.026;2022-07-06T01:28:45;1.92;;;1.72;;
29280;SDS011;25048;49.590;11.026;2022-07-06T01:31:14;3.80;;;1.70;;
29280;SDS011;25048;49.590;11.026;2022-07-06T01:33:42;10.05;;;1.98;;
29280;SDS011;25048;49.590;11.026;2022-07-06T01:36:10;5.50;;;1.80;;
29280;SDS011;25048;49.590;11.026;2022-07-06T01:38:48;3.92;;;1.90;;
29280;SDS011;25048;49.590;11.026;2022-07-06T01:41:17;4.58;;;1.85;;
29280;SDS011;25048;49.590;11.026;2022-07-06T01:43:46;3.10;;;1.98;;
29280;SDS011;25048;49.590;11.026;2022-07-06T01:46:14;4.95;;;2.10;;
29280;SDS011;25048;49.590;11.026;2022-07-06T01:48:42;3.05;;;1.90;;
29280;SDS011;25048;49.590;11.026;2022-07-06T01:51:10;2.97;;;2.07;;
29280;SDS011;25048;49.590;11.026;2022-07-06T01:53:38;2.30;;;1.67;;
29280;SDS011;25048;49.590;11.026;2022-07-06T01:56:06;3.25;;;1.62;;
29280;SDS011;25048;49.590;11.026;2022-07-06T01:58:34;5.92;;;1.90;;
29280;SDS011;25048;49.590;11.026;2022-07-06T02:01:09;2.80;;;1.90;;
29280;SDS011;25048;49.590;11.026;2022-07-06T02:03:38;4.08;;;2.02;;
29280;SDS011;25048;49.590;11.026;2022-07-06T02:06:06;3.20;;;2.00;;
29280;SDS011;25048;49.590;11.026;2022-07-06T02:08:34;3.60;;;1.70;;
29280;SDS011;25048;49.590;11.026;2022-07-06T02:11:03;3.05;;;1.82;;
29280;SDS011;25048;49.590;11.026;2022-07-06T02:13:31;5.28;;;1.72;;
29280;SDS011;25048;49.590;11.026;2022-07-06T02:15:59;8.70;;;1.75;;
29280;SDS011;25048;49.590;11.026;2022-07-06T02:18:27;2.77;;;1.87;;
29280;SDS011;25048;49.590;11.026;2022-07-06T02:20:54;2.37;;;1.75;;
29280;SDS011;25048;49.590;11.026;2022-07-06T02:23:22;2.95;;;2.02;;
29280;SDS011;25048;49.590;11.026;2022-07-06T02:25:49;3.05;;;1.90;;
29280;SDS011;25048;49.590;11.026;2022-07-06T02:28:17;5.70;;;2.60;;
29280;SDS011;25048;49.590;11.026;2022-07-06T02:30:44;2.15;;;1.75;;
29280;SDS011;25048;49.590;11.026;2022-07-06T02:33:12;4.30;;;2.27;;
29280;SDS011;25048;49.590;11.026;2022-07-06T02:35:39;4.95;;;2.30;;
29280;SDS011;25048;49.590;11.026;2022-07-06T02:38:09;3.08;;;1.95;;
29280;SDS011;25048;49.590;11.026;2022-07-06T02:40:36;5.17;;;2.30;;
29280;SDS011;25048;49.590;11.026;2022-07-06T02:43:04;4.30;;;2.40;;
29280;SDS011;25048;49.590;11.026;2022-07-06T02:45:32;3.52;;;2.47;;
29280;SDS011;25048;49.590;11.026;2022-07-06T02:48:00;6.43;;;2.30;;
29280;SDS011;25048;49.590;11.026;2022-07-06T02:50:27;4.77;;;2.40;;
29280;SDS011;25048;49.590;11.026;2022-07-06T02:52:55;2.33;;;2.13;;
29280;SDS011;25048;49.590;11.026;2022-07-06T02:55:24;3.87;;;2.55;;
29280;SDS011;25048;49.590;11.026;2022-07-06T02:57:51;2.80;;;2.60;;
29280;SDS011;25048;49.590;11.026;2022-07-06T03:00:19;4.47;;;2.47;;
29280;SDS011;25048;49.590;11.026;2022-07-06T03:02:46;3.37;;;2.60;;
29280;SDS011;25048;49.590;11.026;2022-07-06T03:05:14;4.73;;;2.40;;
29280;SDS011;25048;49.590;11.026;2022-07-06T03:07:41;2.97;;;2.40;;
29280;SDS011;25048;49.590;11.026;2022-07-06T03:10:09;2.70;;;2.50;;
29280;SDS011;25048;49.590;11.026;2022-07-06T03:12:36;8.60;;;2.77;;
29280;SDS011;25048;49.590;11.026;2022-07-06T03:15:04;3.93;;;2.63;;
29280;SDS011;25048;49.590;11.026;2022-07-06T03:17:32;3.08;;;2.60;;
29280;SDS011;25048;49.590;11.026;2022-07-06T03:19:59;2.53;;;2.30;;
29280;SDS011;25048;49.590;11.026;2022-07-06T03:22:27;4.20;;;2.40;;
29280;SDS011;25048;49.590;11.026;2022-07-06T03:24:55;3.43;;;2.80;;
29280;SDS011;25048;49.590;11.026;2022-07-06T03:27:22;3.20;;;2.80;;
29280;SDS011;25048;49.590;11.026;2022-07-06T03:29:50;3.33;;;2.80;;
29280;SDS011;25048;49.590;11.026;2022-07-06T03:32:17;2.70;;;2.50;;
29280;SDS011;25048;49.590;11.026;2022-07-06T03:34:45;3.03;;;2.70;;
29280;SDS011;25048;49.590;11.026;2022-07-06T03:37:12;5.23;;;2.70;;
29280;SDS011;25048;49.590;11.026;2022-07-06T03:39:40;5.23;;;2.70;;
29280;SDS011;25048;49.590;11.026;2022-07-06T03:42:07;7.05;;;2.90;;
29280;SDS011;25048;49.590;11.026;2022-07-06T03:44:35;3.73;;;2.83;;
29280;SDS011;25048;49.590;11.026;2022-07-06T03:47:02;5.33;;;2.73;;
29280;SDS011;25048;49.590;11.026;2022-07-06T03:49:30;3.73;;;2.80;;
29280;SDS011;25048;49.590;11.026;2022-07-06T03:51:57;4.53;;;3.30;;
29280;SDS011;25048;49.590;11.026;2022-07-06T03:54:25;3.67;;;2.53;;
29280;SDS011;25048;49.590;11.026;2022-07-06T03:56:52;5.17;;;2.90;;
29280;SDS011;25048;49.590;11.026;2022-07-06T03:59:20;2.80;;;2.60;;
29280;SDS011;25048;49.590;11.026;2022-07-06T04:01:47;4.00;;;2.57;;
29280;SDS011;25048;49.590;11.026;2022-07-06T04:04:15;4.37;;;2.90;;
29280;SDS011;25048;49.590;11.026;2022-07-06T04:06:42;5.43;;;3.10;;
29280;SDS011;25048;49.590;11.026;2022-07-06T04:09:10;4.63;;;3.03;;
29280;SDS011;25048;49.590;11.026;2022-07-06T04:11:37;4.53;;;2.77;;
29280;SDS011;25048;49.590;11.026;2022-07-06T04:14:05;4.50;;;2.83;;
29280;SDS011;25048;49.590;11.026;2022-07-06T04:16:32;7.80;;;3.50;;
29280;SDS011;25048;49.590;11.026;2022-07-06T04:19:00;3.43;;;2.80;;
29280;SDS011;25048;49.590;11.026;2022-07-06T04:21:27;3.77;;;2.90;;
29280;SDS011;25048;49.590;11.026;2022-07-06T04:23:55;3.07;;;2.77;;
29280;SDS011;25048;49.590;11.026;2022-07-06T04:26:22;3.87;;;2.80;;
29280;SDS011;25048;49.590;11.026;2022-07-06T04:28:50;4.23;;;3.40;;
29280;SDS011;25048;49.590;11.026;2022-07-06T04:31:17;4.37;;;2.62;;
29280;SDS011;25048;49.590;11.026;2022-07-06T04:33:45;3.03;;;2.73;;
29280;SDS011;25048;49.590;11.026;2022-07-06T04:36:12;5.73;;;3.00;;
29280;SDS011;25048;49.590;11.026;2022-07-06T04:38:40;3.27;;;2.70;;
29280;SDS011;25048;49.590;11.026;2022-07-06T04:41:07;2.93;;;2.40;;
29280;SDS011;25048;49.590;11.026;2022-07-06T04:43:35;5.13;;;2.80;;
29280;SDS011;25048;49.590;11.026;2022-07-06T04:46:03;7.80;;;2.83;;
29280;SDS011;25048;49.590;11.026;2022-07-06T04:48:31;4.73;;;2.10;;
29280;SDS011;25048;49.590;11.026;2022-07-06T04:51:00;2.77;;;2.20;;
29280;SDS011;25048;49.590;11.026;2022-07-06T04:53:27;4.00;;;2.23;;
29280;SDS011;25048;49.590;11.026;2022-07-06T04:55:57;6.20;;;2.20;;
29280;SDS011;25048;49.590;11.026;2022-07-06T04:58:24;1.93;;;1.60;;
29280;SDS011;25048;49.590;11.026;2022-07-06T05:00:52;2.47;;;2.00;;
29280;SDS011;25048;49.590;11.026;2022-07-06T05:03:19;2.20;;;2.00;;
29280;SDS011;25048;49.590;11.026;2022-07-06T05:05:47;3.35;;;2.25;;
29280;SDS011;25048;49.590;11.026;2022-07-06T05:08:14;9.13;;;2.53;;
29280;SDS011;25048;49.590;11.026;2022-07-06T05:10:42;3.62;;;1.90;;
29280;SDS011;25048;49.590;11.026;2022-07-06T05:13:09;2.52;;;2.02;;
29280;SDS011;25048;49.590;11.026;2022-07-06T05:15:37;2.45;;;1.80;;
29280;SDS011;25048;49.590;11.026;2022-07-06T05:18:04;5.72;;;2.08;;
29280;SDS011;25048;49.590;11.026;2022-07-06T05:20:32;2.77;;;1.75;;
29280;SDS011;25048;49.590;11.026;2022-07-06T05:22:59;3.30;;;1.60;;
29280;SDS011;25048;49.590;11.026;2022-07-06T05:25:27;4.25;;;1.67;;
29280;SDS011;25048;49.590;11.026;2022-07-06T05:27:54;4.35;;;1.92;;
29280;SDS011;25048;49.590;11.026;2022-07-06T05:30:22;4.27;;;2.00;;
29280;SDS011;25048;49.590;11.026;2022-07-06T05:32:49;6.12;;;3.00;;
29280;SDS011;25048;49.590;11.026;2022-07-06T05:35:17;2.22;;;2.02;;
29280;SDS011;25048;49.590;11.026;2022-07-06T05:37:44;3.70;;;1.72;;
29280;SDS011;25048;49.590;11.026;2022-07-06T05:40:12;5.30;;;1.42;;
29280;SDS011;25048;49.590;11.026;2022-07-06T05:42:39;2.10;;;1.52;;
29280;SDS011;25048;49.590;11.026;2022-07-06T05:45:07;4.40;;;2.12;;
29280;SDS011;25048;49.590;11.026;2022-07-06T05:47:35;2.42;;;1.90;;
29280;SDS011;25048;49.590;11.026;2022-07-06T05:50:20;3.15;;;1.80;;
29280;SDS011;25048;49.590;11.026;2022-07-06T05:53:01;5.37;;;2.22;;
29280;SDS011;25048;49.590;11.026;2022-07-06T05:55:31;2.00;;;1.77;;
29280;SDS011;25048;49.590;11.026;2022-07-06T05:57:59;2.77;;;1.75;;
29280;SDS011;25048;49.590;11.026;2022-07-06T06:00:27;2.60;;;1.70;;
29280;SDS011;25048;49.590;11.026;2022-07-06T06:02:55;8.10;;;1.77;;
29280;SDS011;25048;49.590;11.026;2022-07-06T06:05:22;7.85;;;1.90;;
29280;SDS011;25048;49.590;11.026;2022-07-06T06:07:49;2.65;;;1.67;;
29280;SDS011;25048;49.590;11.026;2022-07-06T06:10:19;3.22;;;1.85;;
29280;SDS011;25048;49.590;11.026;2022-07-06T06:12:50;3.65;;;2.00;;
29280;SDS011;25048;49.590;11.026;2022-07-06T06:15:18;1.55;;;1.45;;
29280;SDS011;25048;49.590;11.026;2022-07-06T06:17:46;1.95;;;1.62;;
29280;SDS011;25048;49.590;11.026;2022-07-06T06:20:14;2.20;;;1.72;;
29280;SDS011;25048;49.590;11.026;2022-07-06T06:22:51;4.80;;;1.82;;
29280;SDS011;25048;49.590;11.026;2022-07-06T06:25:40;3.30;;;1.35;;
29280;SDS011;25048;49.590;11.026;2022-07-06T06:28:08;3.12;;;1.82;;
29280;SDS011;25048;49.590;11.026;2022-07-06T06:30:37;3.05;;;1.95;;
29280;SDS011;25048;49.590;11.026;2022-07-06T06:35:45;4.47;;;1.57;;
29280;SDS011;25048;49.590;11.026;2022-07-06T06:38:14;3.65;;;1.77;;
29280;SDS011;25048;49.590;11.026;2022-07-06T06:40:43;3.50;;;1.40;;
29280;SDS011;25048;49.590;11.026;2022-07-06T06:43:10;1.80;;;1.60;;
29280;SDS011;25048;49.590;11.026;2022-07-06T06:45:38;1.55;;;1.30;;
29280;SDS011;25048;49.590;11.026;2022-07-06T06:48:06;2.77;;;1.45;;
29280;SDS011;25048;49.590;11.026;2022-07-06T06:50:34;1.77;;;1.67;;
29280;SDS011;25048;49.590;11.026;2022-07-06T06:53:02;3.27;;;1.52;;
29280;SDS011;25048;49.590;11.026;2022-07-06T06:55:29;1.85;;;1.30;;
29280;SDS011;25048;49.590;11.026;2022-07-06T06:57:57;2.42;;;1.57;;
29280;SDS011;25048;49.590;11.026;2022-07-06T07:00:24;4.35;;;1.62;;
29280;SDS011;25048;49.590;11.026;2022-07-06T07:02:52;2.47;;;1.52;;
29280;SDS011;25048;49.590;11.026;2022-07-06T07:05:19;1.98;;;1.47;;
29280;SDS011;25048;49.590;11.026;2022-07-06T07:07:47;2.47;;;1.82;;
29280;SDS011;25048;49.590;11.026;2022-07-06T07:10:14;4.22;;;1.70;;
29280;SDS011;25048;49.590;11.026;2022-07-06T07:12:48;4.45;;;1.95;;
29280;SDS011;25048;49.590;11.026;2022-07-06T07:15:16;2.80;;;1.57;;
29280;SDS011;25048;49.590;11.026;2022-07-06T07:17:43;2.52;;;1.67;;
29280;SDS011;25048;49.590;11.026;2022-07-06T07:20:11;2.20;;;1.50;;
29280;SDS011;25048;49.590;11.026;2022-07-06T07:22:39;2.67;;;1.67;;
29280;SDS011;25048;49.590;11.026;2022-07-06T07:25:06;2.42;;;1.57;;
29280;SDS011;25048;49.590;11.026;2022-07-06T07:27:34;5.22;;;1.80;;
29280;SDS011;25048;49.590;11.026;2022-07-06T07:30:02;5.53;;;1.77;;
29280;SDS011;25048;49.590;11.026;2022-07-06T07:32:30;2.35;;;1.50;;
29280;SDS011;25048;49.590;11.026;2022-07-06T07:34:58;1.50;;;1.40;;
29280;SDS011;25048;49.590;11.026;2022-07-06T07:37:25;2.85;;;1.40;;
29280;SDS011;25048;49.590;11.026;2022-07-06T07:39:53;2.35;;;1.55;;
29280;SDS011;25048;49.590;11.026;2022-07-06T07:42:20;2.60;;;1.65;;
29280;SDS011;25048;49.590;11.026;2022-07-06T07:44:48;2.55;;;1.65;;
29280;SDS011;25048;49.590;11.026;2022-07-06T07:47:15;3.75;;;1.67;;
29280;SDS011;25048;49.590;11.026;2022-07-06T07:49:43;6.42;;;1.60;;
29280;SDS011;25048;49.590;11.026;2022-07-06T07:52:11;2.85;;;1.42;;
29280;SDS011;25048;49.590;11.026;2022-07-06T07:54:38;3.65;;;1.70;;
29280;SDS011;25048;49.590;11.026;2022-07-06T07:57:06;3.37;;;1.65;;
29280;SDS011;25048;49.590;11.026;2022-07-06T07:59:33;5.37;;;1.80;;
29280;SDS011;25048;49.590;11.026;2022-07-06T08:02:01;2.75;;;1.52;;
29280;SDS011;25048;49.590;11.026;2022-07-06T08:04:28;3.50;;;1.40;;
29280;SDS011;25048;49.590;11.026;2022-07-06T08:06:56;3.92;;;1.60;;
29280;SDS011;25048;49.590;11.026;2022-07-06T08:09:23;1.60;;;1.50;;
29280;SDS011;25048;49.590;11.026;2022-07-06T08:11:51;3.50;;;1.57;;
29280;SDS011;25048;49.590;11.026;2022-07-06T08:14:18;1.95;;;1.55;;
29280;SDS011;25048;49.590;11.026;2022-07-06T08:16:46;3.72;;;2.10;;
29280;SDS011;25048;49.590;11.026;2022-07-06T08:19:13;1.98;;;1.60;;
29280;SDS011;25048;49.590;11.026;2022-07-06T08:21:41;3.50;;;1.27;;
29280;SDS011;25048;49.590;11.026;2022-07-06T08:24:09;1.65;;;1.12;;
29280;SDS011;25048;49.590;11.026;2022-07-06T08:26:37;2.55;;;1.40;;
29280;SDS011;25048;49.590;11.026;2022-07-06T08:29:04;2.95;;;1.60;;
29280;SDS011;25048;49.590;11.026;2022-07-06T08:31:32;1.87;;;1.52;;
29280;SDS011;25048;49.590;11.026;2022-07-06T08:34:01;4.17;;;1.45;;
29280;SDS011;25048;49.590;11.026;2022-07-06T08:36:28;1.32;;;1.22;;
29280;SDS011;25048;49.590;11.026;2022-07-06T08:38:56;2.37;;;1.65;;
29280;SDS011;25048;49.590;11.026;2022-07-06T08:41:25;5.95;;;1.55;;
29280;SDS011;25048;49.590;11.026;2022-07-06T08:43:54;1.42;;;1.30;;
29280;SDS011;25048;49.590;11.026;2022-07-06T08:46:22;3.92;;;1.67;;
29280;SDS011;25048;49.590;11.026;2022-07-06T08:48:50;2.15;;;1.32;;
29280;SDS011;25048;49.590;11.026;2022-07-06T08:51:17;2.30;;;1.65;;
29280;SDS011;25048;49.590;11.026;2022-07-06T08:53:47;1.75;;;1.37;;
29280;SDS011;25048;49.590;11.026;2022-07-06T08:56:15;2.40;;;1.87;;
29280;SDS011;25048;49.590;11.026;2022-07-06T08:58:45;1.47;;;1.30;;
29280;SDS011;25048;49.590;11.026;2022-07-06T09:01:12;2.77;;;1.45;;
29280;SDS011;25048;49.590;11.026;2022-07-06T09:03:40;1.30;;;1.10;;
29280;SDS011;25048;49.590;11.026;2022-07-06T09:06:08;1.62;;;1.02;;
29280;SDS011;25048;49.590;11.026;2022-07-06T09:08:36;5.90;;;1.65;;
29280;SDS011;25048;49.590;11.026;2022-07-06T09:11:04;2.37;;;1.17;;
29280;SDS011;25048;49.590;11.026;2022-07-06T09:13:31;3.62;;;1.75;;
29280;SDS011;25048;49.590;11.026;2022-07-06T09:16:09;2.77;;;1.35;;
29280;SDS011;25048;49.590;11.026;2022-07-06T09:18:38;1.87;;;1.55;;
29280;SDS011;25048;49.590;11.026;2022-07-06T09:21:08;3.60;;;1.65;;
29280;SDS011;25048;49.590;11.026;2022-07-06T09:23:36;3.05;;;1.67;;
29280;SDS011;25048;49.590;11.026;2022-07-06T09:26:07;2.55;;;1.40;;
29280;SDS011;25048;49.590;11.026;2022-07-06T09:28:46;6.17;;;1.70;;
29280;SDS011;25048;49.590;11.026;2022-07-06T09:31:10;4.12;;;1.60;;
29280;SDS011;25048;49.590;11.026;2022-07-06T09:33:38;1.80;;;1.70;;
29280;SDS011;25048;49.590;11.026;2022-07-06T09:36:07;4.05;;;1.47;;
29280;SDS011;25048;49.590;11.026;2022-07-06T09:38:35;3.75;;;1.20;;
29280;SDS011;25048;49.590;11.026;2022-07-06T09:41:03;2.85;;;1.60;;
29280;SDS011;25048;49.590;11.026;2022-07-06T09:43:30;3.08;;;1.77;;
29280;SDS011;25048;49.590;11.026;2022-07-06T09:45:59;2.92;;;1.50;;
29280;SDS011;25048;49.590;11.026;2022-07-06T09:48:27;2.75;;;1.20;;
29280;SDS011;25048;49.590;11.026;2022-07-06T09:51:00;2.00;;;1.10;;
29280;SDS011;25048;49.590;11.026;2022-07-06T09:53:26;5.05;;;1.32;;
29280;SDS011;25048;49.590;11.026;2022-07-06T09:55:54;7.17;;;1.60;;
29280;SDS011;25048;49.590;11.026;2022-07-06T09:58:25;3.35;;;1.30;;
29280;SDS011;25048;49.590;11.026;2022-07-06T10:00:52;3.52;;;1.02;;
29280;SDS011;25048;49.590;11.026;2022-07-06T10:03:20;8.80;;;1.77;;
29280;SDS011;25048;49.590;11.026;2022-07-06T10:05:48;1.90;;;1.40;;
29280;SDS011;25048;49.590;11.026;2022-07-06T10:08:16;6.42;;;1.40;;
29280;SDS011;25048;49.590;11.026;2022-07-06T10:10:44;2.95;;;1.20;;
29280;SDS011;25048;49.590;11.026;2022-07-06T10:13:13;2.42;;;1.50;;
29280;SDS011;25048;49.590;11.026;2022-07-06T10:15:43;4.05;;;1.50;;
29280;SDS011;25048;49.590;11.026;2022-07-06T10:18:10;3.42;;;1.32;;
29280;SDS011;25048;49.590;11.026;2022-07-06T10:20:38;2.05;;;1.15;;
29280;SDS011;25048;49.590;11.026;2022-07-06T10:23:07;2.25;;;1.70;;
29280;SDS011;25048;49.590;11.026;2022-07-06T10:25:35;4.72;;;2.08;;
29280;SDS011;25048;49.590;11.026;2022-07-06T10:28:04;4.70;;;1.72;;
29280;SDS011;25048;49.590;11.026;2022-07-06T10:30:33;2.87;;;1.55;;
29280;SDS011;25048;49.590;11.026;2022-07-06T10:33:01;8.10;;;1.72;;
29280;SDS011;25048;49.590;11.026;2022-07-06T10:35:29;1.98;;;1.37;;
29280;SDS011;25048;49.590;11.026;2022-07-06T10:38:04;2.47;;;1.50;;
29280;SDS011;25048;49.590;11.026;2022-07-06T10:40:33;2.27;;;1.40;;
29280;SDS011;25048;49.590;11.026;2022-07-06T10:43:19;3.27;;;1.80;;
29280;SDS011;25048;49.590;11.026;2022-07-06T10:48:18;2.87;;;1.70;;
29280;SDS011;25048;49.590;11.026;2022-07-06T10:50:47;5.95;;;1.60;;
29280;SDS011;25048;49.590;11.026;2022-07-06T10:53:23;1.80;;;1.42;;
29280;SDS011;25048;49.590;11.026;2022-07-06T10:55:53;3.45;;;1.27;;
29280;SDS011;25048;49.590;11.026;2022-07-06T11:01:08;3.58;;;1.47;;
29280;SDS011;25048;49.590;11.026;2022-07-06T11:03:41;13.22;;;1.65;;
29280;SDS011;25048;49.590;11.026;2022-07-06T11:06:17;2.22;;;1.82;;
29280;SDS011;25048;49.590;11.026;2022-07-06T11:08:53;4.10;;;1.72;;
29280;SDS011;25048;49.590;11.026;2022-07-06T11:11:23;6.15;;;1.70;;
29280;SDS011;25048;49.590;11.026;2022-07-06T11:13:58;1.90;;;1.17;;
29280;SDS011;25048;49.590;11.026;2022-07-06T11:16:23;2.12;;;1.52;;
29280;SDS011;25048;49.590;11.026;2022-07-06T11:19:06;1.82;;;1.30;;
29280;SDS011;25048;49.590;11.026;2022-07-06T11:21:43;4.72;;;1.50;;
29280;SDS011;25048;49.590;11.026;2022-07-06T11:24:29;3.65;;;1.40;;
29280;SDS011;25048;49.590;11.026;2022-07-06T11:26:58;3.35;;;1.30;;
29280;SDS011;25048;49.590;11.026;2022-07-06T11:29:27;1.75;;;1.37;;
29280;SDS011;25048;49.590;11.026;2022-07-06T11:31:57;3.00;;;1.30;;
29280;SDS011;25048;49.590;11.026;2022-07-06T11:34:30;2.42;;;1.30;;
29280;SDS011;25048;49.590;11.026;2022-07-06T11:37:01;2.22;;;1.50;;
29280;SDS011;25048;49.590;11.026;2022-07-06T11:39:31;3.67;;;1.40;;
29280;SDS011;25048;49.590;11.026;2022-07-06T11:41:59;1.67;;;1.45;;
29280;SDS011;25048;49.590;11.026;2022-07-06T11:44:30;2.98;;;1.40;;
29280;SDS011;25048;49.590;11.026;2022-07-06T11:46:57;3.05;;;1.50;;
29280;SDS011;25048;49.590;11.026;2022-07-06T11:49:27;3.58;;;1.35;;
29280;SDS011;25048;49.590;11.026;2022-07-06T11:51:55;3.55;;;1.30;;
29280;SDS011;25048;49.590;11.026;2022-07-06T11:54:24;1.57;;;1.30;;
29280;SDS011;25048;49.590;11.026;2022-07-06T11:56:57;4.15;;;1.50;;
29280;SDS011;25048;49.590;11.026;2022-07-06T11:59:24;6.28;;;1.50;;
29280;SDS011;25048;49.590;11.026;2022-07-06T12:04:42;5.33;;;1.70;;
29280;SDS011;25048;49.590;11.026;2022-07-06T12:07:12;2.22;;;1.35;;
29280;SDS011;25048;49.590;11.026;2022-07-06T12:09:46;2.45;;;1.20;;
29280;SDS011;25048;49.590;11.026;2022-07-06T12:12:11;4.47;;;2.05;;
29280;SDS011;25048;49.590;11.026;2022-07-06T12:14:39;3.50;;;1.40;;
29280;SDS011;25048;49.590;11.026;2022-07-06T12:17:12;2.67;;;1.20;;
29280;SDS011;25048;49.590;11.026;2022-07-06T12:19:41;1.15;;;0.88;;
29280;SDS011;25048;49.590;11.026;2022-07-06T12:22:09;1.65;;;1.10;;
29280;SDS011;25048;49.590;11.026;2022-07-06T12:24:41;2.22;;;1.17;;
29280;SDS011;25048;49.590;11.026;2022-07-06T12:27:12;4.15;;;1.07;;
29280;SDS011;25048;49.590;11.026;2022-07-06T12:29:41;4.00;;;1.30;;
29280;SDS011;25048;49.590;11.026;2022-07-06T12:34:45;1.98;;;1.10;;
29280;SDS011;25048;49.590;11.026;2022-07-06T12:37:13;1.15;;;1.05;;
29280;SDS011;25048;49.590;11.026;2022-07-06T12:39:49;1.80;;;1.12;;
29280;SDS011;25048;49.590;11.026;2022-07-06T12:42:16;2.08;;;1.10;;
29280;SDS011;25048;49.590;11.026;2022-07-06T12:44:46;6.83;;;1.35;;
29280;SDS011;25048;49.590;11.026;2022-07-06T12:47:19;2.15;;;1.20;;
29280;SDS011;25048;49.590;11.026;2022-07-06T12:49:52;2.15;;;1.15;;
29280;SDS011;25048;49.590;11.026;2022-07-06T12:52:31;2.15;;;0.95;;
29280;SDS011;25048;49.590;11.026;2022-07-06T12:54:59;3.27;;;1.17;;
29280;SDS011;25048;49.590;11.026;2022-07-06T12:57:28;2.37;;;0.95;;
29280;SDS011;25048;49.590;11.026;2022-07-06T13:00:00;1.87;;;1.30;;
29280;SDS011;25048;49.590;11.026;2022-07-06T13:05:01;1.67;;;0.95;;
29280;SDS011;25048;49.590;11.026;2022-07-06T13:07:34;2.02;;;0.82;;
29280;SDS011;25048;49.590;11.026;2022-07-06T13:10:04;1.75;;;0.93;;
29280;SDS011;25048;49.590;11.026;2022-07-06T13:12:34;2.62;;;1.07;;
29280;SDS011;25048;49.590;11.026;2022-07-06T13:15:03;2.77;;;1.22;;
29280;SDS011;25048;49.590;11.026;2022-07-06T13:17:32;4.05;;;1.22;;
29280;SDS011;25048;49.590;11.026;2022-07-06T13:20:00;2.30;;;1.07;;
29280;SDS011;25048;49.590;11.026;2022-07-06T13:22:28;3.30;;;1.90;;
29280;SDS011;25048;49.590;11.026;2022-07-06T13:24:56;2.25;;;1.55;;
29280;SDS011;25048;49.590;11.026;2022-07-06T13:27:23;4.67;;;2.85;;
29280;SDS011;25048;49.590;11.026;2022-07-06T13:29:51;2.98;;;1.17;;
29280;SDS011;25048;49.590;11.026;2022-07-06T13:32:19;3.02;;;1.00;;
29280;SDS011;25048;49.590;11.026;2022-07-06T13:34:47;1.50;;;1.00;;
29280;SDS011;25048;49.590;11.026;2022-07-06T13:37:15;3.10;;;0.93;;
29280;SDS011;25048;49.590;11.026;2022-07-06T13:39:44;1.60;;;1.00;;
29280;SDS011;25048;49.590;11.026;2022-07-06T13:42:12;2.15;;;1.20;;
29280;SDS011;25048;49.590;11.026;2022-07-06T13:44:39;3.12;;;0.98;;
29280;SDS011;25048;49.590;11.026;2022-07-06T13:47:07;1.45;;;0.80;;
29280;SDS011;25048;49.590;11.026;2022-07-06T13:49:34;3.42;;;1.70;;
29280;SDS011;25048;49.590;11.026;2022-07-06T13:52:02;2.77;;;1.42;;
29280;SDS011;25048;49.590;11.026;2022-07-06T13:54:30;4.17;;;2.55;;
29280;SDS011;25048;49.590;11.026;2022-07-06T13:56:58;2.42;;;1.22;;
29280;SDS011;25048;49.590;11.026;2022-07-06T13:59:27;3.30;;;1.20;;
29280;SDS011;25048;49.590;11.026;2022-07-06T14:01:54;3.05;;;1.27;;
29280;SDS011;25048;49.590;11.026;2022-07-06T14:04:22;1.70;;;1.22;;
29280;SDS011;25048;49.590;11.026;2022-07-06T14:06:49;3.42;;;1.10;;
29280;SDS011;25048;49.590;11.026;2022-07-06T14:09:17;3.22;;;0.80;;
29280;SDS011;25048;49.590;11.026;2022-07-06T14:11:44;4.65;;;0.98;;
29280;SDS011;25048;49.590;11.026;2022-07-06T14:14:12;1.87;;;1.10;;
29280;SDS011;25048;49.590;11.026;2022-07-06T14:16:40;5.42;;;1.77;;
29280;SDS011;25048;49.590;11.026;2022-07-06T14:19:07;2.83;;;1.50;;
29280;SDS011;25048;49.590;11.026;2022-07-06T14:21:35;3.80;;;1.67;;
29280;SDS011;25048;49.590;11.026;2022-07-06T14:24:02;4.15;;;1.10;;
29280;SDS011;25048;49.590;11.026;2022-07-06T14:26:30;6.35;;;1.55;;
29280;SDS011;25048;49.590;11.026;2022-07-06T14:28:58;3.40;;;1.55;;
29280;SDS011;25048;49.590;11.026;2022-07-06T14:31:26;2.70;;;1.02;;
29280;SDS011;25048;49.590;11.026;2022-07-06T14:33:53;3.60;;;1.32;;
29280;SDS011;25048;49.590;11.026;2022-07-06T14:36:21;4.67;;;1.25;;
29280;SDS011;25048;49.590;11.026;2022-07-06T14:38:48;1.30;;;0.70;;
29280;SDS011;25048;49.590;11.026;2022-07-06T14:41:16;1.37;;;1.02;;
29280;SDS011;25048;49.590;11.026;2022-07-06T14:43:43;4.00;;;1.42;;
29280;SDS011;25048;49.590;11.026;2022-07-06T14:46:11;2.95;;;1.10;;
29280;SDS011;25048;49.590;11.026;2022-07-06T14:48:38;1.02;;;0.70;;
29280;SDS011;25048;49.590;11.026;2022-07-06T14:51:06;6.03;;;1.30;;
29280;SDS011;25048;49.590;11.026;2022-07-06T14:53:34;2.10;;;1.10;;
29280;SDS011;25048;49.590;11.026;2022-07-06T14:56:01;3.45;;;1.10;;
29280;SDS011;25048;49.590;11.026;2022-07-06T14:58:29;5.17;;;0.90;;